createdAt,value
2022-07-31T00:02:46.824Z,15.82
2022-07-31T00:05:50.495Z,15.84
2022-07-31T00:08:54.170Z,15.83
2022-07-31T00:11:57.815Z,15.85
2022-07-31T00:15:01.728Z,15.86
2022-07-31T00:18:08.821Z,15.84
2022-07-31T00:21:14.127Z,15.86
2022-07-31T00:24:17.695Z,15.86
2022-07-31T00:27:21.334Z,15.84
2022-07-31T00:30:25.025Z,15.78
2022-07-31T00:33:30.076Z,15.75
2022-07-31T00:36:33.901Z,15.65
2022-07-31T00:39:38.514Z,15.60
2022-07-31T00:42:42.433Z,15.59
2022-07-31T00:45:47.026Z,15.63
2022-07-31T00:49:03.821Z,15.70
2022-07-31T00:52:08.407Z,15.68
2022-07-31T00:55:12.258Z,15.69
2022-07-31T00:58:15.995Z,15.63
2022-07-31T01:01:19.601Z,15.60
2022-07-31T01:04:26.309Z,15.58
2022-07-31T01:07:30.978Z,15.58
2022-07-31T01:10:49.636Z,15.59
2022-07-31T01:13:58.009Z,15.59
2022-07-31T01:17:04.980Z,15.61
2022-07-31T01:20:14.073Z,15.68
2022-07-31T01:23:50.145Z,15.72
2022-07-31T01:27:05.615Z,15.78
2022-07-31T01:30:11.725Z,15.71
2022-07-31T01:33:21.327Z,15.67
2022-07-31T01:36:34.690Z,15.67
2022-07-31T01:39:41.977Z,15.70
2022-07-31T01:43:08.455Z,15.79
2022-07-31T01:46:18.279Z,15.81
2022-07-31T01:49:25.085Z,15.85
2022-07-31T01:52:33.677Z,15.85
2022-07-31T01:56:01.871Z,15.90
2022-07-31T01:59:20.572Z,15.85
2022-07-31T02:02:31.167Z,15.87
2022-07-31T02:05:38.150Z,15.89
2022-07-31T02:08:45.020Z,15.87
2022-07-31T02:11:54.663Z,15.88
2022-07-31T02:14:59.619Z,15.87
2022-07-31T02:18:06.147Z,15.89
2022-07-31T02:21:10.285Z,15.91
2022-07-31T02:24:14.520Z,15.91
2022-07-31T02:27:57.308Z,15.98
2022-07-31T02:30:48.052Z,15.93
2022-07-31T02:33:54.855Z,15.95
2022-07-31T02:37:01.512Z,15.93
2022-07-31T02:40:09.056Z,15.94
2022-07-31T02:43:14.229Z,15.94
2022-07-31T02:46:19.334Z,15.95
2022-07-31T02:49:25.004Z,16.00
2022-07-31T02:52:29.795Z,16.03
2022-07-31T02:55:34.771Z,16.05
2022-07-31T02:58:41.965Z,16.06
2022-07-31T03:01:45.811Z,16.11
2022-07-31T03:04:51.419Z,16.09
2022-07-31T03:07:55.076Z,16.09
2022-07-31T03:10:58.911Z,16.04
2022-07-31T03:14:05.659Z,15.98
2022-07-31T03:17:11.546Z,15.94
2022-07-31T03:20:18.121Z,15.99
2022-07-31T03:23:24.958Z,15.93
2022-07-31T03:26:29.753Z,15.92
2022-07-31T03:29:43.202Z,15.93
2022-07-31T03:32:47.502Z,15.94
2022-07-31T03:35:53.405Z,15.95
2022-07-31T03:38:57.161Z,15.96
2022-07-31T03:42:04.028Z,15.97
2022-07-31T03:45:10.881Z,15.98
2022-07-31T03:48:15.501Z,15.99
2022-07-31T03:51:20.945Z,16.00
2022-07-31T03:54:24.610Z,16.02
2022-07-31T03:57:31.508Z,16.02
2022-07-31T04:00:38.746Z,16.00
2022-07-31T04:03:42.388Z,16.07
2022-07-31T04:06:47.355Z,16.03
2022-07-31T04:09:51.509Z,15.97
2022-07-31T04:12:55.753Z,15.95
2022-07-31T04:15:59.443Z,15.95
2022-07-31T04:19:03.035Z,16.01
2022-07-31T04:22:09.227Z,16.00
2022-07-31T04:25:13.039Z,15.97
2022-07-31T04:28:16.732Z,16.03
2022-07-31T04:31:20.375Z,16.04
2022-07-31T04:34:24.089Z,16.10
2022-07-31T04:37:29.020Z,16.09
2022-07-31T04:40:32.665Z,16.08
2022-07-31T04:43:36.299Z,16.07
2022-07-31T04:46:40.083Z,16.08
2022-07-31T04:49:43.805Z,16.08
2022-07-31T04:52:48.911Z,16.11
2022-07-31T04:56:06.423Z,16.14
2022-07-31T04:59:13.114Z,16.22
2022-07-31T05:02:16.906Z,16.31
2022-07-31T05:05:20.875Z,16.35
2022-07-31T05:08:25.895Z,16.39
2022-07-31T05:11:29.819Z,16.40
2022-07-31T05:14:33.440Z,16.41
2022-07-31T05:17:37.198Z,16.36
2022-07-31T05:20:40.855Z,16.44
2022-07-31T05:23:47.846Z,16.54
2022-07-31T05:26:51.495Z,16.69
2022-07-31T05:29:55.296Z,16.74
2022-07-31T05:32:59.486Z,16.78
2022-07-31T05:36:04.490Z,16.93
2022-07-31T05:39:09.784Z,16.87
2022-07-31T05:42:13.488Z,16.88
2022-07-31T05:45:17.092Z,16.87
2022-07-31T05:48:20.771Z,17.00
2022-07-31T05:51:24.366Z,17.16
2022-07-31T05:54:29.432Z,17.25
2022-07-31T05:57:34.335Z,17.39
2022-07-31T06:00:39.573Z,17.47
2022-07-31T06:03:51.587Z,17.64
2022-07-31T06:06:56.224Z,17.64
2022-07-31T06:10:02.559Z,17.81
2022-07-31T06:13:06.703Z,18.13
2022-07-31T06:16:14.786Z,17.99
2022-07-31T06:19:24.546Z,18.12
2022-07-31T06:22:28.541Z,18.46
2022-07-31T06:25:35.561Z,18.57
2022-07-31T06:28:47.663Z,18.71
2022-07-31T06:31:52.715Z,18.92
2022-07-31T06:34:56.364Z,19.20
2022-07-31T06:37:59.918Z,19.37
2022-07-31T06:41:04.983Z,19.29
2022-07-31T06:44:09.059Z,19.41
2022-07-31T06:47:15.981Z,19.28
2022-07-31T06:50:20.116Z,19.33
2022-07-31T06:53:23.775Z,19.24
2022-07-31T06:56:28.979Z,19.23
2022-07-31T06:59:39.925Z,19.23
2022-07-31T07:02:44.446Z,19.28
2022-07-31T07:05:48.135Z,19.19
2022-07-31T07:08:52.364Z,19.22
2022-07-31T07:11:57.430Z,19.33
2022-07-31T07:15:01.042Z,19.60
2022-07-31T07:18:04.761Z,19.76
2022-07-31T07:21:08.445Z,19.93
2022-07-31T07:24:12.952Z,19.94
2022-07-31T07:27:17.970Z,19.86
2022-07-31T07:30:25.232Z,19.71
2022-07-31T07:33:40.753Z,19.82
2022-07-31T07:36:45.662Z,19.85
2022-07-31T07:39:49.427Z,19.91
2022-07-31T07:42:54.550Z,20.05
2022-07-31T07:45:58.241Z,20.18
2022-07-31T07:49:02.823Z,20.28
2022-07-31T07:52:06.729Z,20.33
2022-07-31T07:55:12.599Z,20.40
2022-07-31T07:58:17.893Z,20.34
2022-07-31T08:01:21.528Z,20.47
2022-07-31T08:04:25.305Z,20.20
2022-07-31T08:07:42.453Z,20.30
2022-07-31T08:10:47.194Z,20.44
2022-07-31T08:13:52.355Z,20.56
2022-07-31T08:16:57.021Z,20.47
2022-07-31T08:20:01.292Z,20.55
2022-07-31T08:23:04.972Z,20.80
2022-07-31T08:26:09.554Z,20.95
2022-07-31T08:29:14.606Z,21.00
2022-07-31T08:32:19.372Z,21.04
2022-07-31T08:35:22.995Z,21.30
2022-07-31T08:38:26.742Z,21.71
2022-07-31T08:41:30.537Z,21.94
2022-07-31T08:44:37.603Z,22.57
2022-07-31T08:47:48.288Z,23.04
2022-07-31T08:50:54.801Z,22.98
2022-07-31T08:54:00.472Z,23.31
2022-07-31T08:57:05.307Z,23.26
2022-07-31T09:00:21.707Z,24.01
2022-07-31T09:03:25.752Z,24.27
2022-07-31T09:06:29.398Z,23.97
2022-07-31T09:09:50.943Z,24.27
2022-07-31T09:12:57.127Z,24.29
2022-07-31T09:16:03.727Z,24.62
2022-07-31T09:19:52.350Z,25.22
2022-07-31T09:22:33.949Z,24.89
2022-07-31T09:25:38.023Z,24.85
2022-07-31T09:28:44.926Z,24.60
2022-07-31T09:31:49.953Z,24.13
2022-07-31T09:34:53.672Z,24.07
2022-07-31T09:37:57.369Z,24.17
2022-07-31T09:41:26.806Z,23.96
2022-07-31T09:44:42.176Z,24.07
2022-07-31T09:47:48.491Z,23.70
2022-07-31T09:50:55.933Z,23.57
2022-07-31T09:53:59.744Z,23.73
2022-07-31T09:57:13.463Z,24.28
2022-07-31T10:00:17.608Z,24.59
2022-07-31T10:03:25.851Z,24.98
2022-07-31T10:06:35.952Z,24.70
2022-07-31T10:09:42.120Z,24.45
2022-07-31T10:12:52.293Z,23.99
2022-07-31T10:16:00.977Z,23.89
2022-07-31T10:19:11.574Z,23.98
2022-07-31T10:22:21.328Z,23.81
2022-07-31T10:25:29.563Z,23.96
2022-07-31T10:28:34.499Z,24.17
2022-07-31T10:31:38.916Z,24.19
2022-07-31T10:34:44.528Z,24.01
2022-07-31T10:38:00.179Z,24.01
2022-07-31T10:41:22.009Z,24.45
2022-07-31T10:44:38.730Z,24.62
2022-07-31T10:47:53.776Z,24.82
2022-07-31T10:51:07.406Z,24.68
2022-07-31T10:54:11.646Z,24.73
2022-07-31T10:57:24.228Z,24.79
2022-07-31T11:00:30.590Z,24.79
2022-07-31T11:03:41.907Z,25.38
2022-07-31T11:06:48.707Z,25.64
2022-07-31T11:09:53.167Z,25.82
2022-07-31T11:13:05.167Z,26.07
2022-07-31T11:16:08.979Z,26.08
2022-07-31T11:19:13.488Z,26.02
2022-07-31T11:22:31.454Z,25.84
2022-07-31T11:25:38.851Z,25.50
2022-07-31T11:28:45.993Z,25.34
2022-07-31T11:31:49.639Z,25.31
2022-07-31T11:34:55.266Z,25.59
2022-07-31T11:38:01.316Z,25.70
2022-07-31T11:41:06.084Z,25.80
2022-07-31T11:44:10.464Z,25.79
2022-07-31T11:47:55.991Z,25.66
2022-07-31T11:50:42.192Z,25.68
2022-07-31T11:53:56.679Z,25.79
2022-07-31T11:57:01.679Z,25.47
2022-07-31T12:00:29.132Z,25.60
2022-07-31T12:03:36.502Z,25.59
2022-07-31T12:06:40.594Z,24.99
2022-07-31T12:10:00.738Z,25.10
2022-07-31T12:13:15.612Z,24.95
2022-07-31T12:16:20.026Z,24.84
2022-07-31T12:19:29.404Z,24.78
2022-07-31T12:22:32.968Z,24.89
2022-07-31T12:25:46.973Z,24.74
2022-07-31T12:29:00.134Z,24.49
2022-07-31T12:32:05.236Z,24.27
2022-07-31T12:35:09.792Z,24.26
2022-07-31T12:38:40.798Z,24.21
2022-07-31T12:41:47.829Z,24.05
2022-07-31T12:44:53.618Z,24.08
2022-07-31T12:47:57.391Z,24.02
2022-07-31T12:51:01.529Z,23.73
2022-07-31T12:54:06.347Z,23.41
2022-07-31T12:57:11.603Z,23.23
2022-07-31T13:00:18.325Z,23.19
2022-07-31T13:03:22.082Z,23.11
2022-07-31T13:06:28.076Z,22.89
2022-07-31T13:09:32.027Z,22.87
2022-07-31T13:12:37.059Z,22.92
2022-07-31T13:15:40.782Z,23.45
2022-07-31T13:18:44.466Z,23.56
2022-07-31T13:21:50.259Z,23.66
2022-07-31T13:24:53.967Z,23.38
2022-07-31T13:27:59.136Z,23.18
2022-07-31T13:31:03.325Z,22.82
2022-07-31T13:34:07.074Z,22.35
2022-07-31T13:37:10.741Z,22.15
2022-07-31T13:40:14.847Z,21.88
2022-07-31T13:46:24.874Z,21.95
2022-07-31T13:49:32.199Z,21.99
2022-07-31T13:52:36.006Z,22.12
2022-07-31T13:55:39.875Z,21.88
2022-07-31T13:58:45.256Z,21.78
2022-07-31T14:02:04.241Z,21.64
2022-07-31T14:05:10.079Z,21.23
2022-07-31T14:08:33.108Z,21.27
2022-07-31T14:11:39.965Z,21.20
2022-07-31T14:14:44.973Z,21.14
2022-07-31T14:17:48.645Z,21.08
2022-07-31T14:20:52.847Z,20.80
2022-07-31T14:23:57.203Z,20.96
2022-07-31T14:27:00.829Z,20.86
2022-07-31T14:30:14.033Z,20.83
2022-07-31T14:33:23.948Z,20.92
2022-07-31T14:36:27.567Z,20.68
2022-07-31T14:39:31.213Z,20.43
2022-07-31T14:42:34.961Z,20.31
2022-07-31T14:45:51.707Z,20.36
2022-07-31T14:48:55.640Z,20.58
2022-07-31T14:51:59.246Z,20.41
2022-07-31T14:55:04.045Z,20.27
2022-07-31T14:58:07.988Z,20.00
2022-07-31T15:01:16.016Z,19.91
2022-07-31T15:04:19.811Z,19.83
2022-07-31T15:07:45.821Z,19.81
2022-07-31T15:10:47.252Z,19.54
2022-07-31T15:13:50.906Z,19.65
2022-07-31T15:16:56.096Z,19.67
2022-07-31T15:20:00.958Z,19.74
2022-07-31T15:23:05.290Z,19.67
2022-07-31T15:26:09.176Z,19.45
2022-07-31T15:29:12.875Z,19.34
2022-07-31T15:32:18.073Z,19.32
2022-07-31T15:35:21.888Z,19.26
2022-07-31T15:38:25.695Z,19.27
2022-07-31T15:41:29.350Z,19.18
2022-07-31T15:44:36.163Z,19.00
2022-07-31T15:47:43.227Z,19.05
2022-07-31T15:50:47.090Z,18.86
2022-07-31T15:53:50.790Z,18.84
2022-07-31T15:56:54.445Z,18.78
2022-07-31T15:59:58.171Z,18.80
2022-07-31T16:03:04.563Z,18.73
2022-07-31T16:06:08.403Z,18.73
2022-07-31T16:09:19.676Z,18.75
2022-07-31T16:12:24.063Z,18.73
2022-07-31T16:15:27.707Z,18.51
2022-07-31T16:18:33.219Z,18.31
2022-07-31T16:21:37.040Z,18.14
2022-07-31T16:24:41.861Z,18.15
2022-07-31T16:27:45.499Z,18.09
2022-07-31T16:30:49.161Z,18.00
2022-07-31T16:33:54.187Z,17.99
2022-07-31T16:36:57.853Z,17.99
2022-07-31T16:40:01.669Z,17.82
2022-07-31T16:43:48.684Z,17.73
2022-07-31T16:46:33.164Z,17.74
2022-07-31T16:49:38.744Z,17.70
2022-07-31T16:52:42.480Z,17.56
2022-07-31T16:56:00.825Z,17.54
2022-07-31T16:59:07.067Z,17.53
2022-07-31T17:02:11.503Z,17.61
2022-07-31T17:05:17.257Z,17.53
2022-07-31T17:08:20.934Z,17.57
2022-07-31T17:11:24.679Z,17.61
2022-07-31T17:14:29.269Z,17.58
2022-07-31T17:17:33.011Z,17.64
2022-07-31T17:20:39.444Z,17.72
2022-07-31T17:23:51.066Z,17.81
2022-07-31T17:26:55.351Z,17.95
2022-07-31T17:29:58.988Z,17.98
2022-07-31T17:33:02.675Z,18.07
2022-07-31T17:36:08.512Z,17.93
2022-07-31T17:39:12.392Z,17.96
2022-07-31T17:42:18.126Z,17.94
2022-07-31T17:45:26.856Z,17.84
2022-07-31T17:48:51.055Z,17.90
2022-07-31T17:51:59.831Z,17.90
2022-07-31T17:55:04.631Z,17.91
2022-07-31T17:58:08.920Z,17.94
2022-07-31T18:01:12.780Z,17.89
2022-07-31T18:04:17.078Z,17.93
2022-07-31T18:07:24.207Z,17.93
2022-07-31T18:10:51.808Z,17.93
2022-07-31T18:13:54.147Z,17.91
2022-07-31T18:16:59.192Z,17.92
2022-07-31T18:20:05.186Z,17.93
2022-07-31T18:23:10.446Z,17.86
2022-07-31T18:26:14.152Z,17.94
2022-07-31T18:29:18.890Z,17.96
2022-07-31T18:32:22.816Z,17.94
2022-07-31T18:35:26.497Z,17.96
2022-07-31T18:38:31.667Z,17.92
2022-07-31T18:41:35.998Z,17.90
2022-07-31T18:44:39.654Z,17.95
2022-07-31T18:47:43.311Z,17.92
2022-07-31T18:51:00.122Z,17.93
2022-07-31T18:54:09.019Z,17.94
2022-07-31T18:57:12.954Z,17.97
2022-07-31T19:00:17.767Z,17.97
2022-07-31T19:03:21.486Z,18.04
2022-07-31T19:06:25.067Z,17.99
2022-07-31T19:09:30.550Z,17.95
2022-07-31T19:12:34.186Z,17.97
2022-07-31T19:15:38.460Z,17.97
2022-07-31T19:18:42.463Z,17.94
2022-07-31T19:21:47.536Z,17.93
2022-07-31T19:24:52.615Z,17.98
2022-07-31T19:27:56.564Z,17.87
2022-07-31T19:31:01.124Z,17.90
2022-07-31T19:34:04.758Z,17.89
2022-07-31T19:37:09.780Z,17.91
2022-07-31T19:40:15.194Z,17.89
2022-07-31T19:43:20.156Z,17.89
2022-07-31T19:46:24.202Z,17.93
2022-07-31T19:49:27.892Z,17.90
2022-07-31T19:52:31.838Z,17.88
2022-07-31T19:55:37.749Z,17.83
2022-07-31T19:58:42.404Z,17.86
2022-07-31T20:01:46.100Z,17.83
2022-07-31T20:04:49.819Z,17.87
2022-07-31T20:07:53.496Z,17.82
2022-07-31T20:10:59.660Z,17.81
2022-07-31T20:14:03.373Z,17.77
2022-07-31T20:17:07.131Z,17.77
2022-07-31T20:20:15.380Z,17.81
2022-07-31T20:23:19.642Z,17.77
2022-07-31T20:26:25.135Z,17.77
2022-07-31T20:29:28.815Z,17.75
2022-07-31T20:32:33.152Z,17.76
2022-07-31T20:35:47.968Z,17.70
2022-07-31T20:38:53.535Z,17.77
2022-07-31T20:41:59.535Z,17.75
2022-07-31T20:45:03.177Z,17.76
2022-07-31T20:48:07.935Z,17.75
2022-07-31T20:51:16.061Z,17.74
2022-07-31T20:54:20.276Z,17.76
2022-07-31T20:57:40.376Z,17.77
2022-07-31T21:00:43.991Z,17.75
2022-07-31T21:03:48.043Z,17.76
2022-07-31T21:06:51.788Z,17.76
2022-07-31T21:09:55.362Z,17.76
2022-07-31T21:13:00.436Z,17.75
2022-07-31T21:16:04.915Z,17.77
2022-07-31T21:19:09.779Z,17.75
2022-07-31T21:22:13.966Z,17.73
2022-07-31T21:25:18.240Z,17.74
2022-07-31T21:28:25.228Z,17.72
2022-07-31T21:31:29.600Z,17.75
2022-07-31T21:34:33.990Z,17.74
2022-07-31T21:37:39.985Z,17.70
2022-07-31T21:40:45.267Z,17.71
2022-07-31T21:43:58.840Z,17.71
2022-07-31T21:47:04.388Z,17.72
2022-07-31T21:50:09.848Z,17.73
2022-07-31T21:53:14.499Z,17.75
2022-07-31T21:56:18.226Z,17.74
2022-07-31T21:59:23.399Z,17.72
2022-07-31T22:02:27.454Z,17.70
2022-07-31T22:05:48.636Z,17.70
2022-07-31T22:08:52.368Z,17.71
2022-07-31T22:12:01.277Z,17.70
2022-07-31T22:15:11.261Z,17.72
2022-07-31T22:18:19.625Z,17.73
2022-07-31T22:21:24.407Z,17.69
2022-07-31T22:24:28.631Z,17.70
2022-07-31T22:27:51.037Z,17.67
2022-07-31T22:30:58.448Z,17.65
2022-07-31T22:34:02.438Z,17.59
2022-07-31T22:37:07.651Z,17.58
2022-07-31T22:40:13.307Z,17.55
2022-07-31T22:44:10.200Z,17.56
2022-07-31T22:46:43.004Z,17.54
2022-07-31T22:49:47.214Z,17.55
2022-07-31T22:52:51.060Z,17.56
2022-07-31T22:55:55.178Z,17.54
2022-07-31T22:58:58.934Z,17.56
2022-07-31T23:02:04.700Z,17.56
2022-07-31T23:05:10.326Z,17.57
2022-07-31T23:08:13.932Z,17.55
2022-07-31T23:11:18.137Z,17.54
2022-07-31T23:14:22.062Z,17.55
2022-07-31T23:17:27.084Z,17.54
2022-07-31T23:20:30.766Z,17.52
2022-07-31T23:23:34.532Z,17.48
2022-07-31T23:26:38.272Z,17.44
2022-07-31T23:29:42.000Z,17.43
2022-07-31T23:32:46.991Z,17.32
2022-07-31T23:35:50.713Z,17.31
2022-07-31T23:38:54.422Z,17.29
2022-07-31T23:42:15.471Z,17.27
2022-07-31T23:45:19.130Z,17.22
2022-07-31T23:48:29.275Z,17.21
2022-07-31T23:51:33.816Z,17.19
2022-07-31T23:54:37.563Z,17.17
2022-07-31T23:57:41.396Z,17.22
